Terminal Aerodrome Forecast
Issued by NWS Duluth, MN

Home | Current Version | Previous Version | Text Only | Print | Product List | Glossary On
Versions: 1 2 3 4 5 6 7 8 9 10 11 12 13 14 15 16 17 18 19 20 21
000
FTUS43 KDLH 200800 AAA
TAFDLH
TAF AMD
KDLH 200843Z 2009/2106 32009KT P6SM FEW040
     FM201200 33009KT P6SM BKN030
     FM201600 34012KT P6SM BKN035
     FM201900 35011KT P6SM SCT040
     FM202300 02005KT P6SM SKC=

USA.gov is the U.S. government's official web portal to all federal, state and local government web resources and services.